Latest METARs, TAFs and NOTAMs for RJGG


---------------------------------------------------------------------------
	(OBSERVATIONS)
RJGG 261030Z 04007KT 4000 -RA BR FEW004 BKN050 BKN070 19/18 Q1014
    TEMPO 3000 RA BR=
RJGG 261000Z 07007KT 7000 -RA FEW004 BKN035 BKN060 19/19 Q1014
    TEMPO 3000 RA BR=
RJGG 260930Z 03005KT 360V070 3000 R36/1800U RA BR FEW004 SCT015
    BKN030 19/18 Q1014 NOSIG=
RJGG 260900Z 34016KT 2500 RA BR FEW004 BKN030 19/18 Q1013 NOSIG=
RJGG 260830Z 31021KT 3000 +RA BR FEW004 BKN025 20/18 Q1014 NOSIG=
RJGG 260800Z 33017KT 3000 RA BR FEW004 SCT006 BKN025 20/19 Q1014
    NOSIG=
---------------------------------------------------------------------------
	(TERMINAL AREA FORECAST)
RJGG 260516Z 2606/2712 24008KT 8000 -RA FEW012 BKN020
    BECMG 2606/2608 32010KT
    TEMPO 2608/2612 3000 RA BR FEW005 BKN008
    TEMPO 2612/2615 4000 RA BR
    TEMPO 2618/2621 4000 RA BR FEW005 BKN008=
---------------------------------------------------------------------------
	(NOTAMS)


RJGG A4078/18 TRIGGER NOTAM-AIP SUP 140/18 UNSERVICEABILITY AND
    ALTN PROC OF CHUBU ILS-LOC 36(ICX) TEMPO OPS OF ALTN LOC
    TEMPO ESTABLISHMENT OF STAR FOR CHUBU INTL AP/RJGG TEMPO
    CHANGE OF INSTR APCH PROC FOR CHUBU INTL AP/RJGG. 12 SEP
    15:00 2018 UNTIL 30 JAN 15:00 2019. CREATED: 12 SEP 13:10
    2018

RJGG A4207/18 CRANE EXIST ABV HORIZONTAL SFC 1.PSN : 345144N1364904E
    (APRX QTE/069DEG 1221M FM RJGG ARP) 2.NUMBER : MAX 1 3.RMK
    : (1)WX MNM,INSTRUMENT APCH PROC AND DEP PROC NO CHANGE (2)RED
    FLAG INSTL. SFC - 195FT AMSL, 02 OCT 00:00 2018 UNTIL 02
    OCT 07:00 2018. CREATED: 19 SEP 00:37 2018

RJGG A4261/18 TWY A,A1 THRU A10,B,B1 THRU B10,C,C7 THRU C10-CLSD
    DUE TO MAINT RMK/EXC ACFT WITH PRIOR PERMISSION. 26 SEP 17:20
    2018 UNTIL 26 SEP 19:30 2018. CREATED: 22 SEP 10:03 2018

RJGG A4262/18 ACFT STAND TXL E,E2 THRU E6-CLSD DUE TO MAINT RMK/EXC
    ACFT WITH PRIOR PERMISSION. 26 SEP 16:00 2018 UNTIL 26 SEP
    21:00 2018. CREATED: 22 SEP 10:04 2018

RJGG A4263/18 ACFT STAND TXL D,D5 THRU D7,N-CLSD DUE TO MAINT
    RMK/EXC ACFT WITH PRIOR PERMISSION. 26 SEP 15:30 2018 UNTIL
    26 SEP 19:30 2018. CREATED: 22 SEP 10:05 2018

RJGG A4274/18 TWY A,A1 THRU A10,B,B1 THRU B10,C,C7 THRU C10-CLSD
    DUE TO MAINT RMK/EXC ACFT WITH PRIOR PERMISSION. 27 SEP 17:20
    2018 UNTIL 27 SEP 20:15 2018. CREATED: 23 SEP 14:14 2018

RJGG A4275/18 ACFT STAND TXL D,D5 THRU D7,N-CLSD DUE TO MAINT
    RMK/EXC ACFT WITH PRIOR PERMISSION. 27 SEP 15:30 2018 UNTIL
    27 SEP 20:15 2018. CREATED: 23 SEP 14:14 2018

RJGG A4276/18 ACFT STAND TXL E,E2 THRU E6-CLSD DUE TO MAINT RMK/EXC
    ACFT WITH PRIOR PERMISSION. 27 SEP 16:00 2018 UNTIL 27 SEP
    20:15 2018. CREATED: 23 SEP 14:15 2018

RJGG A4283/18 ACFT STAND TXL D,D5 THRU D7-CLSD DUE TO MAINT RMK/EXC
    ACFT WITH PRIOR PERMISSION. 28 SEP 15:30 2018 UNTIL 28 SEP
    21:00 2018. CREATED: 24 SEP 10:09 2018

RJGG A4284/18 ACFT STAND TXL E,E2 THRU E6-CLSD DUE TO MAINT RMK/EXC
    ACFT WITH PRIOR PERMISSION. 28 SEP 16:00 2018 UNTIL 28 SEP
    21:00 2018. CREATED: 24 SEP 10:09 2018

RJGG A4307/18 TWY A A1 THRU A10, B B1 THRU B10, C C7 THRU C10
    ACFT STAND TXL E E2 THRU E6-CLSD DUE TO MAINT RMK/EXC ACFT
    WITH PRIOR PERMISSION. 29 SEP 16:00 2018 UNTIL 29 SEP 20:15
    2018. CREATED: 25 SEP 10:51 2018

RJGG A4308/18 ACFT STAND TXL D D5 THRU D7 N-CLSD DUE TO MAINT
    RMK/EXC ACFT WITH PRIOR PERMISSION. 29 SEP 15:30 2018 UNTIL
    29 SEP 20:15 2018. CREATED: 25 SEP 10:51 2018

RJGG A4324/18 RWY 18/36-CLSD DUE TO MAINT RMK/EXC ACFT WITH PRIOR
    PERMISSION AT LEAST 1HR BFR. 25 1800/2015 26 1720/1930 27
    1720/2015 29 30 1600/2015, 25 SEP 18:00 2018 UNTIL 30 SEP
    20:15 2018. CREATED: 25 SEP 16:55 2018

RJGG A4338/18 CRANE EXIST ABV HORIZONTAL SFC 1.PSN : 345142N1364908E
    (QTE/074DEG 1268M FM RJGG ARP) 2.NUMBER : MAX 1 3.RMK : (1)WX
    MNM,INSTRUMENT APCH PROC AND DEP PROC NO CHANGE (2)RED FLAG
    INSTL. SFC - 250FT AMSL, 10 OCT 23:00 2018 UNTIL 11 OCT 08:00
    2018. CREATED: 26 SEP 10:38 2018

---------------------------------------------------------------------------